Nutwood, Illinois
Current Conditions -  °F | °C
As of 2:54 AM on Thursday 27 Nov 2014 (Local Time) from KSET Reporting Station
Overcast Overcast  
Wind Chill: 20°   Ceiling: 1100
Heat Index: 30°   Visibility: 7mi
Dew Point: 27°   Wind: 14mph
Humidity: 88%   Direction: 340°NNW
Pressure: 30.34"   Gusts: 20mph
Location:  39.1226°N, 90.5371°W
Report Text: KSET 270854Z AUTO 34012G17KT 7SM OVC011 M01/M03 A3034 RMK AO2 SLP277 T10111028 51034
Loading
Personal Weather Stations






























Interactive Weather Map New forecast layout! Learn more

10-Day Weather Forecast

Advertisements
Track Severe Weather on mobile